Time;durP1;ratioP1;P1;durP2;ratioP2;P2;SDS_P1;SDS_P2;PMS_P1;PMS_P2;Temp;Humidity;BMP_temperature;BMP_pressure;BME280_temperature;BME280_humidity;BME280_pressure;Samples;Min_cycle;Max_cycle;Signal;HPM_P1;HPM_P2
2023/01/19 00:01:06;;;;;;;55.00;50.30;;;;;;;1.08;100.00;99375.66;4993517;28;20764;-44
2023/01/19 00:03:35;;;;;;;53.53;49.17;;;;;;;1.06;100.00;99370.59;4992932;28;20461;-45
2023/01/19 00:06:05;;;;;;;58.50;53.90;;;;;;;1.07;100.00;99374.06;4992966;28;20848;-47
2023/01/19 00:08:33;;;;;;;56.37;51.80;;;;;;;1.07;100.00;99376.69;4992936;28;20860;-48
2023/01/19 00:11:01;;;;;;;56.93;51.87;;;;;;;1.08;100.00;99366.00;4992768;28;20433;-45
2023/01/19 00:13:30;;;;;;;55.50;50.73;;;;;;;1.09;100.00;99370.28;4992641;28;20477;-44
2023/01/19 00:15:58;;;;;;;59.67;54.57;;;;;;;1.11;100.00;99362.22;4992666;28;20565;-47
2023/01/19 00:18:26;;;;;;;55.27;50.30;;;;;;;1.13;100.00;99356.81;4992918;28;20492;-44
2023/01/19 00:20:54;;;;;;;54.37;49.67;;;;;;;1.14;100.00;99364.50;4992860;28;20434;-47
2023/01/19 00:23:21;;;;;;;55.57;50.80;;;;;;;1.18;100.00;99357.09;4992267;28;20470;-44
2023/01/19 00:25:50;;;;;;;55.30;50.77;;;;;;;1.20;100.00;99352.50;4992617;28;20514;-44
2023/01/19 00:28:18;;;;;;;51.93;48.00;;;;;;;1.22;100.00;99351.34;4992547;28;20477;-44
2023/01/19 00:30:50;;;;;;;52.47;48.03;;;;;;;1.22;100.00;99356.59;4993037;28;20449;-44
2023/01/19 00:33:18;;;;;;;54.53;50.17;;;;;;;1.24;100.00;99354.63;4992371;28;20560;-47
2023/01/19 00:35:51;;;;;;;52.57;48.03;;;;;;;1.26;100.00;99357.06;4992274;28;20421;-43
2023/01/19 00:38:18;;;;;;;52.43;48.40;;;;;;;1.27;100.00;99353.47;4985070;28;20427;-44
2023/01/19 00:40:46;;;;;;;52.73;48.43;;;;;;;1.28;100.00;99348.03;4984542;28;21064;-44
2023/01/19 00:43:13;;;;;;;54.77;50.40;;;;;;;1.30;100.00;99345.25;4991934;28;20461;-44
2023/01/19 00:45:40;;;;;;;53.10;48.90;;;;;;;1.29;100.00;99351.47;4992219;28;20430;-45
2023/01/19 00:48:09;;;;;;;54.67;50.27;;;;;;;1.31;100.00;99354.75;4992346;28;20514;-45
2023/01/19 00:50:37;;;;;;;56.60;51.70;;;;;;;1.32;100.00;99356.38;4992405;28;20437;-43
2023/01/19 00:53:05;;;;;;;53.13;49.03;;;;;;;1.32;100.00;99359.81;4991941;28;20538;-45
2023/01/19 00:55:33;;;;;;;53.00;48.60;;;;;;;1.31;100.00;99366.09;4992175;28;20434;-43
2023/01/19 00:58:01;;;;;;;53.87;49.37;;;;;;;1.33;100.00;99364.09;4992453;28;20835;-46
2023/01/19 01:00:29;;;;;;;55.10;50.40;;;;;;;1.37;100.00;99369.84;4992518;28;20489;-43
2023/01/19 01:02:57;;;;;;;50.90;46.50;;;;;;;1.34;100.00;99371.00;4991910;28;20465;-47
2023/01/19 01:05:27;;;;;;;50.20;46.20;;;;;;;1.36;100.00;99371.63;4991916;28;20503;-44
2023/01/19 01:07:54;;;;;;;52.63;48.53;;;;;;;1.38;100.00;99377.53;4992177;28;20473;-45
2023/01/19 01:10:25;;;;;;;52.20;47.90;;;;;;;1.39;100.00;99383.59;4992281;28;20917;-44
2023/01/19 01:12:53;;;;;;;51.20;47.10;;;;;;;1.41;100.00;99374.56;4991386;28;20885;-44
2023/01/19 01:15:41;;;;;;;52.33;48.23;;;;;;;1.41;100.00;99366.69;4991601;28;20473;-44
2023/01/19 01:18:09;;;;;;;52.80;48.40;;;;;;;1.42;100.00;99367.50;4992226;28;20438;-45
2023/01/19 01:20:38;;;;;;;53.67;49.20;;;;;;;1.44;100.00;99362.88;4992155;28;20616;-47
2023/01/19 01:23:05;;;;;;;53.73;48.17;;;;;;;1.40;100.00;99372.13;4991660;28;20470;-47
2023/01/19 01:25:36;;;;;;;50.77;46.53;;;;;;;1.43;100.00;99363.91;4991551;28;20426;-44
2023/01/19 01:28:05;;;;;;;50.63;46.60;;;;;;;1.44;100.00;99365.50;4991832;28;20486;-47
2023/01/19 01:30:33;;;;;;;53.27;48.97;;;;;;;1.44;100.00;99358.47;4992264;28;20801;-45
2023/01/19 01:33:01;;;;;;;51.60;47.30;;;;;;;1.42;100.00;99360.44;4991739;28;20466;-44
2023/01/19 01:35:32;;;;;;;53.70;49.07;;;;;;;1.46;100.00;99363.56;4991947;28;20436;-46
2023/01/19 01:38:01;;;;;;;52.10;47.60;;;;;;;1.47;100.00;99347.59;4985812;28;20509;-44
2023/01/19 01:40:29;;;;;;;50.63;46.43;;;;;;;1.48;100.00;99361.56;4982923;28;20467;-47
2023/01/19 01:42:57;;;;;;;51.40;47.30;;;;;;;1.52;100.00;99365.50;4989504;28;20579;-44
2023/01/19 01:45:30;;;;;;;50.57;46.53;;;;;;;1.54;100.00;99366.13;4980973;28;21044;-46
2023/01/19 01:48:04;;;;;;;51.97;47.67;;;;;;;1.55;100.00;99362.53;4991943;28;20478;-44
2023/01/19 01:50:35;;;;;;;52.47;47.43;;;;;;;1.58;100.00;99362.97;4991888;28;20465;-44
2023/01/19 01:53:10;;;;;;;50.23;46.43;;;;;;;1.60;100.00;99363.63;4991199;28;20496;-44
2023/01/19 01:55:45;;;;;;;48.70;44.80;;;;;;;1.64;100.00;99370.16;4992584;28;20461;-48
2023/01/19 01:58:15;;;;;;;49.97;46.40;;;;;;;1.67;100.00;99356.69;4995439;28;20426;-43
2023/01/19 02:03:28;;;;;;;50.50;46.07;;;;;;;1.74;100.00;99374.38;4994975;28;20461;-44
2023/01/19 02:05:59;;;;;;;50.73;46.87;;;;;;;1.77;100.00;99363.53;4995226;28;20458;-43
2023/01/19 02:14:06;;;;;;;50.03;46.10;;;;;;;1.84;100.00;99348.72;4994484;28;20465;-43
2023/01/19 02:16:36;;;;;;;50.70;46.50;;;;;;;1.83;100.00;99352.31;4995034;28;20476;-49
2023/01/19 02:19:05;;;;;;;51.13;47.30;;;;;;;1.86;100.00;99357.22;4995222;28;20923;-46
2023/01/19 02:21:38;;;;;;;49.63;45.60;;;;;;;1.85;100.00;99352.97;4995036;28;20433;-44
2023/01/19 02:24:08;;;;;;;49.93;45.63;;;;;;;1.86;100.00;99344.09;4994410;28;20465;-49
2023/01/19 02:26:39;;;;;;;47.37;43.87;;;;;;;1.86;100.00;99354.59;4994740;28;21264;-45
2023/01/19 02:29:10;;;;;;;48.67;45.13;;;;;;;1.87;100.00;99358.88;4995176;28;20484;-44
2023/01/19 02:31:39;;;;;;;50.27;46.17;;;;;;;1.86;100.00;99352.78;4994898;28;20808;-48
2023/01/19 02:34:09;;;;;;;48.43;44.77;;;;;;;1.88;100.00;99345.53;4994229;28;20469;-45
2023/01/19 02:36:41;;;;;;;48.90;44.90;;;;;;;1.88;100.00;99340.28;4994587;28;20454;-44
2023/01/19 02:39:11;;;;;;;51.00;47.10;;;;;;;1.88;100.00;99335.03;4987195;28;20446;-46
2023/01/19 02:41:43;;;;;;;48.73;45.03;;;;;;;1.90;100.00;99340.94;4979745;28;20928;-44
2023/01/19 02:44:12;;;;;;;48.00;44.10;;;;;;;1.90;100.00;99340.94;4994046;28;20832;-45
2023/01/19 02:46:40;;;;;;;51.13;47.13;;;;;;;1.91;100.00;99341.78;4994337;28;20446;-46
2023/01/19 02:49:08;;;;;;;52.43;48.30;;;;;;;1.92;100.00;99336.31;4994410;28;20470;-43
2023/01/19 02:51:36;;;;;;;48.00;44.33;;;;;;;1.95;100.00;99348.28;4994837;28;20445;-46
2023/01/19 02:54:24;;;;;;;49.63;45.83;;;;;;;1.99;100.00;99336.44;4993958;28;20513;-44
2023/01/19 02:57:05;;;;;;;53.93;49.73;;;;;;;1.98;100.00;99351.41;4994593;28;20800;-44
2023/01/19 02:59:46;;;;;;;49.37;45.70;;;;;;;2.03;100.00;99353.53;4994461;28;20434;-44
2023/01/19 03:02:31;;;;;;;49.27;45.53;;;;;;;2.03;100.00;99351.69;4994391;28;20516;-47
2023/01/19 03:05:20;;;;;;;49.47;45.40;;;;;;;2.00;100.00;99349.41;4993963;28;20434;-46
2023/01/19 03:07:57;;;;;;;49.60;45.17;;;;;;;2.01;100.00;99339.72;4994062;28;20458;-43
2023/01/19 03:10:38;;;;;;;47.90;44.17;;;;;;;2.01;100.00;99342.34;4994191;28;20835;-43
2023/01/19 03:13:14;;;;;;;49.57;45.43;;;;;;;1.99;100.00;99347.78;4993846;28;20462;-47
2023/01/19 03:15:48;;;;;;;49.27;45.33;;;;;;;1.99;100.00;99339.91;4993726;28;20448;-43
2023/01/19 03:18:20;;;;;;;48.97;45.17;;;;;;;1.97;100.00;99328.72;4994056;28;20430;-45
2023/01/19 03:20:52;;;;;;;47.93;44.33;;;;;;;1.96;100.00;99331.53;4994047;28;20453;-45
2023/01/19 03:23:22;;;;;;;47.73;43.80;;;;;;;1.94;100.00;99336.16;4993589;28;20469;-43
2023/01/19 03:25:54;;;;;;;49.20;45.13;;;;;;;1.93;100.00;99337.97;4993577;28;20489;-44
2023/01/19 03:28:24;;;;;;;47.50;43.97;;;;;;;1.91;100.00;99341.78;4993571;28;20433;-47
2023/01/19 03:30:58;;;;;;;47.17;43.97;;;;;;;1.89;100.00;99344.56;4993599;28;20430;-43
2023/01/19 03:33:29;;;;;;;50.80;46.80;;;;;;;1.89;100.00;99325.34;4993372;28;20549;-43
2023/01/19 03:36:02;;;;;;;48.77;45.03;;;;;;;1.84;100.00;99327.69;4993479;28;20840;-44
2023/01/19 03:38:35;;;;;;;51.00;46.97;;;;;;;1.83;100.00;99316.34;4986141;28;20443;-44
2023/01/19 03:41:09;;;;;;;48.63;45.03;;;;;;;1.81;100.00;99313.09;4985594;28;20433;-44
2023/01/19 03:43:39;;;;;;;49.47;45.47;;;;;;;1.81;100.00;99314.88;4992938;28;20461;-45
2023/01/19 03:46:09;;;;;;;50.70;46.77;;;;;;;1.79;100.00;99315.09;4993342;28;20450;-44
2023/01/19 03:48:38;;;;;;;48.60;45.00;;;;;;;1.80;100.00;99315.88;4993450;28;20955;-43
2023/01/19 03:51:08;;;;;;;49.80;45.80;;;;;;;1.76;100.00;99318.06;4993368;28;20426;-44
2023/01/19 03:53:36;;;;;;;49.37;45.17;;;;;;;1.79;100.00;99327.41;4992803;28;20492;-44
2023/01/19 03:56:06;;;;;;;47.47;43.77;;;;;;;1.81;100.00;99322.78;4992889;28;20500;-43
2023/01/19 03:58:34;;;;;;;48.47;44.83;;;;;;;1.85;100.00;99318.81;4993394;28;20529;-45
2023/01/19 04:01:02;;;;;;;49.27;45.20;;;;;;;1.86;100.00;99323.88;4993330;28;20514;-44
2023/01/19 04:03:30;;;;;;;49.70;46.00;;;;;;;1.89;100.00;99318.28;4992669;28;20473;-47
2023/01/19 04:05:58;;;;;;;48.37;44.67;;;;;;;1.88;100.00;99311.38;4992899;28;20843;-44
2023/01/19 04:08:25;;;;;;;49.73;45.90;;;;;;;1.91;100.00;99326.00;4992953;28;20438;-46
2023/01/19 04:10:53;;;;;;;48.83;45.30;;;;;;;1.94;100.00;99323.03;4992984;28;20469;-45
2023/01/19 04:13:22;;;;;;;46.73;43.53;;;;;;;1.95;100.00;99322.81;4992522;28;20875;-44
2023/01/19 04:15:50;;;;;;;50.10;46.10;;;;;;;1.96;100.00;99332.38;4992390;28;20932;-45
2023/01/19 04:18:17;;;;;;;50.47;46.40;;;;;;;1.95;100.00;99335.97;4992635;28;20521;-44
2023/01/19 04:20:45;;;;;;;49.43;45.50;;;;;;;1.95;100.00;99324.63;4992751;28;20441;-44
2023/01/19 04:23:13;;;;;;;49.10;45.30;;;;;;;1.99;100.00;99310.16;4992308;28;20926;-44
2023/01/19 04:25:40;;;;;;;50.07;46.37;;;;;;;2.01;100.00;99305.53;4992690;28;20457;-43
2023/01/19 04:28:08;;;;;;;50.50;46.57;;;;;;;1.97;100.00;99301.63;4992791;28;20434;-44
2023/01/19 04:30:37;;;;;;;47.17;43.67;;;;;;;1.97;100.00;99294.53;4992602;28;20888;-44
2023/01/19 04:33:04;;;;;;;47.80;44.30;;;;;;;1.99;100.00;99289.94;4992185;28;21116;-44
2023/01/19 04:35:33;;;;;;;49.80;45.47;;;;;;;2.01;100.00;99289.75;4992242;28;20453;-43
2023/01/19 04:38:00;;;;;;;48.43;44.47;;;;;;;2.02;100.00;99291.41;4986486;28;20459;-45
2023/01/19 04:40:28;;;;;;;48.40;44.63;;;;;;;2.05;100.00;99297.13;4983261;28;20426;-44
2023/01/19 04:42:56;;;;;;;47.63;42.70;;;;;;;2.06;100.00;99288.22;4991822;28;20493;-44
2023/01/19 04:45:23;;;;;;;44.70;41.50;;;;;;;2.10;100.00;99281.63;4992388;28;20452;-44
2023/01/19 04:47:52;;;;;;;45.37;41.53;;;;;;;2.07;100.00;99289.03;4992311;28;20449;-46
2023/01/19 04:50:20;;;;;;;45.13;41.80;;;;;;;2.09;100.00;99300.22;4992176;28;20478;-44
2023/01/19 04:52:48;;;;;;;45.47;41.87;;;;;;;1.99;100.00;99284.69;4991831;28;21029;-43
2023/01/19 04:55:17;;;;;;;43.33;40.53;;;;;;;1.88;100.00;99285.09;4992514;28;20810;-45
2023/01/19 04:57:44;;;;;;;42.80;39.80;;;;;;;1.79;100.00;99296.69;4992345;28;20458;-46
2023/01/19 05:00:13;;;;;;;42.73;39.80;;;;;;;1.73;100.00;99296.56;4992470;28;20784;-44
2023/01/19 05:02:42;;;;;;;44.30;41.10;;;;;;;1.66;100.00;99307.78;4991712;28;20437;-44
2023/01/19 05:05:12;;;;;;;40.90;38.10;;;;;;;1.58;100.00;99286.00;4992304;28;20441;-44
2023/01/19 05:07:40;;;;;;;42.43;39.43;;;;;;;1.47;100.00;99307.38;4992401;28;20504;-44
2023/01/19 05:10:09;;;;;;;42.63;39.63;;;;;;;1.45;100.00;99307.56;4992336;28;20501;-45
2023/01/19 05:12:37;;;;;;;42.53;39.73;;;;;;;1.41;100.00;99321.22;4991864;28;20429;-44
2023/01/19 05:15:08;;;;;;;42.80;39.97;;;;;;;1.37;100.00;99318.13;4991922;28;20434;-45
2023/01/19 05:17:36;;;;;;;43.07;40.07;;;;;;;1.32;100.00;99325.69;4992421;28;21112;-46
2023/01/19 05:20:04;;;;;;;41.13;38.53;;;;;;;1.31;100.00;99342.47;4992408;28;20545;-46
2023/01/19 05:22:33;;;;;;;40.67;37.93;;;;;;;1.26;100.00;99342.13;4991903;28;20423;-44
2023/01/19 05:25:01;;;;;;;39.83;37.13;;;;;;;1.21;100.00;99339.22;4992127;28;20437;-45
2023/01/19 05:27:29;;;;;;;39.50;36.87;;;;;;;1.15;100.00;99331.19;4992129;28;20505;-47
2023/01/19 05:29:56;;;;;;;38.27;35.73;;;;;;;1.10;100.00;99356.16;4992002;28;20484;-44
2023/01/19 05:32:24;;;;;;;36.00;34.00;;;;;;;1.04;100.00;99335.00;4995649;28;20445;-44
2023/01/19 05:34:52;;;;;;;35.83;33.80;;;;;;;1.03;100.00;99357.00;4995825;28;20879;-46
2023/01/19 05:37:19;;;;;;;35.10;32.90;;;;;;;0.98;100.00;99357.50;4995576;28;20465;-46
2023/01/19 05:39:48;;;;;;;35.90;33.80;;;;;;;0.97;100.00;99362.91;4984464;28;20439;-44
2023/01/19 05:42:16;;;;;;;35.10;33.00;;;;;;;0.95;100.00;99357.84;4993183;28;20438;-44
2023/01/19 05:44:44;;;;;;;35.43;33.40;;;;;;;0.96;100.00;99364.72;4995371;28;20466;-45
2023/01/19 05:47:12;;;;;;;34.13;32.23;;;;;;;0.96;100.00;99369.97;4995834;28;20819;-44
2023/01/19 05:49:39;;;;;;;34.17;32.30;;;;;;;0.99;100.00;99371.44;4995738;28;20441;-48
2023/01/19 05:52:07;;;;;;;34.90;32.83;;;;;;;0.99;100.00;99371.44;4995717;28;20602;-45
2023/01/19 05:54:34;;;;;;;33.77;31.93;;;;;;;1.00;100.00;99371.28;4995025;28;20473;-44
2023/01/19 05:57:03;;;;;;;34.90;32.90;;;;;;;1.05;100.00;99378.63;4995427;28;20512;-43
2023/01/19 05:59:31;;;;;;;35.13;33.13;;;;;;;1.09;100.00;99374.69;4995642;28;20484;-46
2023/01/19 06:01:59;;;;;;;33.40;31.60;;;;;;;1.13;100.00;99378.63;4995591;28;20434;-45
2023/01/19 06:04:27;;;;;;;32.40;30.70;;;;;;;1.17;100.00;99385.16;4994713;28;20512;-45
2023/01/19 06:06:55;;;;;;;33.33;31.53;;;;;;;1.20;100.00;99390.06;4995281;28;20464;-43
2023/01/19 06:09:22;;;;;;;34.33;32.13;;;;;;;1.28;100.00;99397.94;4995204;28;20466;-47
2023/01/19 06:11:52;;;;;;;33.10;31.30;;;;;;;1.32;100.00;99396.59;4995370;28;20473;-45
2023/01/19 06:14:21;;;;;;;33.10;30.97;;;;;;;1.37;100.00;99382.97;4994617;28;20462;-44
2023/01/19 06:16:49;;;;;;;33.40;31.33;;;;;;;1.42;100.00;99391.16;4994979;28;20465;-44
2023/01/19 06:19:17;;;;;;;33.90;31.83;;;;;;;1.46;100.00;99401.16;4995228;28;20438;-45
2023/01/19 06:21:48;;;;;;;33.90;31.90;;;;;;;1.50;100.00;99404.22;4994990;28;20425;-44
2023/01/19 06:24:16;;;;;;;34.80;32.60;;;;;;;1.54;100.00;99419.50;4994435;28;20480;-44
2023/01/19 06:26:43;;;;;;;33.47;31.57;;;;;;;1.56;100.00;99407.00;4995083;28;20454;-47
2023/01/19 06:29:12;;;;;;;32.60;30.60;;;;;;;1.60;100.00;99431.13;4995087;28;20434;-44
2023/01/19 06:31:41;;;;;;;34.07;31.87;;;;;;;1.65;100.00;99431.44;4995055;28;20477;-44
2023/01/19 06:34:09;;;;;;;33.80;32.00;;;;;;;1.65;100.00;99444.56;4994499;28;20461;-46
2023/01/19 06:36:37;;;;;;;35.87;34.00;;;;;;;1.65;100.00;99441.94;4994697;28;20777;-46
2023/01/19 06:39:05;;;;;;;35.87;33.77;;;;;;;1.66;100.00;99448.84;4994918;28;20434;-44
2023/01/19 06:41:33;;;;;;;33.10;31.20;;;;;;;1.70;100.00;99457.22;4986307;28;20426;-47
2023/01/19 06:44:02;;;;;;;33.63;31.33;;;;;;;1.71;100.00;99457.03;4994394;28;20476;-44
2023/01/19 06:46:29;;;;;;;34.07;32.17;;;;;;;1.70;100.00;99457.22;4994870;28;20450;-45
2023/01/19 06:48:58;;;;;;;35.73;33.50;;;;;;;1.69;100.00;99464.28;4994513;28;20808;-44
2023/01/19 06:51:26;;;;;;;34.20;31.80;;;;;;;1.74;100.00;99464.56;4994729;28;20473;-44
2023/01/19 06:53:54;;;;;;;33.97;31.97;;;;;;;1.76;100.00;99467.03;4994120;28;20465;-44
2023/01/19 06:56:21;;;;;;;33.43;31.60;;;;;;;1.78;100.00;99475.56;4994595;28;20454;-44
2023/01/19 06:58:50;;;;;;;36.87;34.70;;;;;;;1.80;100.00;99479.66;4994774;28;20859;-43
2023/01/19 07:01:18;;;;;;;36.97;34.60;;;;;;;1.83;100.00;99481.94;4994678;28;20430;-45
2023/01/19 07:03:46;;;;;;;34.30;32.30;;;;;;;1.86;100.00;99478.16;4993925;28;20462;-43
2023/01/19 07:06:15;;;;;;;36.13;34.03;;;;;;;1.86;100.00;99486.84;4994262;28;20457;-43
2023/01/19 07:08:43;;;;;;;36.30;33.70;;;;;;;1.89;100.00;99488.31;4994443;28;20835;-50
2023/01/19 07:11:12;;;;;;;34.20;32.30;;;;;;;1.92;100.00;99495.84;4994385;28;20469;-43
2023/01/19 07:13:57;;;;;;;34.13;32.03;;;;;;;1.94;100.00;99494.69;4993548;28;20469;-43
2023/01/19 07:16:24;;;;;;;36.53;33.63;;;;;;;1.97;100.00;99507.50;4994061;28;20476;-43
2023/01/19 07:18:52;;;;;;;35.23;33.00;;;;;;;2.00;100.00;99506.38;4994443;28;20529;-43
2023/01/19 07:21:22;;;;;;;34.77;32.53;;;;;;;2.04;100.00;99511.09;4994132;28;20430;-44
2023/01/19 07:23:51;;;;;;;35.43;33.00;;;;;;;2.07;100.00;99517.81;4993652;28;21001;-43
2023/01/19 07:26:20;;;;;;;35.90;33.60;;;;;;;2.10;100.00;99528.81;4993886;28;20877;-43
2023/01/19 07:28:48;;;;;;;36.23;33.73;;;;;;;2.13;100.00;99532.91;4994016;28;20533;-45
2023/01/19 07:31:17;;;;;;;36.00;33.30;;;;;;;2.17;100.00;99539.47;4993976;28;20477;-43
2023/01/19 07:33:44;;;;;;;35.63;33.47;;;;;;;2.19;100.00;99535.66;4993412;28;20493;-43
2023/01/19 07:36:13;;;;;;;36.37;33.80;;;;;;;2.22;100.00;99545.03;4993591;28;20457;-44
2023/01/19 07:38:42;;;;;;;37.70;34.77;;;;;;;2.24;100.00;99538.59;4986328;28;20797;-43
2023/01/19 07:41:10;;;;;;;38.47;35.87;;;;;;;2.29;100.00;99550.41;4985517;28;20517;-44
2023/01/19 07:43:37;;;;;;;38.03;34.80;;;;;;;2.32;100.00;99555.34;4993329;28;20458;-44
2023/01/19 07:46:06;;;;;;;37.77;34.83;;;;;;;2.34;100.00;99555.97;4993278;28;20556;-44
2023/01/19 07:48:34;;;;;;;37.23;34.60;;;;;;;2.35;100.00;99555.81;4993607;28;20445;-44
2023/01/19 07:51:07;;;;;;;37.67;35.37;;;;;;;2.38;100.00;99566.00;4993642;28;20501;-44
2023/01/19 07:53:40;;;;;;;36.10;33.60;;;;;;;2.39;100.00;99564.19;4992183;28;20892;-45
2023/01/19 07:56:10;;;;;;;37.00;34.70;;;;;;;2.43;100.00;99571.56;4993327;28;20504;-44
2023/01/19 07:58:37;;;;;;;36.77;34.07;;;;;;;2.46;100.00;99571.19;4993480;28;20429;-45
2023/01/19 08:01:07;;;;;;;36.07;33.60;;;;;;;2.48;100.00;99566.56;4993257;28;20461;-45
2023/01/19 08:03:34;;;;;;;38.50;35.57;;;;;;;2.49;100.00;99568.22;4992917;28;20470;-44
2023/01/19 08:06:03;;;;;;;37.90;34.97;;;;;;;2.49;100.00;99578.75;4993024;28;20550;-46
2023/01/19 08:08:33;;;;;;;36.60;34.13;;;;;;;2.53;100.00;99587.13;4993185;28;20537;-48
2023/01/19 08:11:01;;;;;;;36.00;33.40;;;;;;;2.52;100.00;99588.09;4993239;28;20431;-47
2023/01/19 08:13:31;;;;;;;36.90;34.60;;;;;;;2.55;100.00;99591.22;4992726;28;20889;-45
2023/01/19 08:15:58;;;;;;;37.03;34.53;;;;;;;2.58;100.00;99593.50;4992845;28;20450;-45
2023/01/19 08:18:26;;;;;;;41.53;37.63;;;;;;;2.60;100.00;99593.31;4993010;28;20488;-45
2023/01/19 08:20:54;;;;;;;38.90;36.33;;;;;;;2.62;100.00;99600.06;4992895;28;20442;-46
2023/01/19 08:23:22;;;;;;;39.10;36.70;;;;;;;2.64;100.00;99605.16;4992460;28;21003;-46
2023/01/19 08:25:50;;;;;;;40.17;37.43;;;;;;;2.69;100.00;99600.16;4992906;28;20939;-48
2023/01/19 08:28:18;;;;;;;40.47;37.27;;;;;;;2.71;100.00;99585.88;4992880;28;20444;-43
2023/01/19 08:30:52;;;;;;;40.67;37.37;;;;;;;2.75;100.00;99617.91;4992798;28;20434;-43
2023/01/19 08:33:21;;;;;;;41.10;37.97;;;;;;;2.80;100.00;99618.22;4992523;28;20827;-43
2023/01/19 08:35:51;;;;;;;40.53;37.50;;;;;;;2.82;100.00;99607.50;4992691;28;20513;-44
2023/01/19 08:38:20;;;;;;;42.43;38.80;;;;;;;2.82;100.00;99613.59;4985306;28;20427;-47
2023/01/19 08:40:48;;;;;;;41.33;38.40;;;;;;;2.85;100.00;99615.06;4984561;28;20951;-43
2023/01/19 08:43:17;;;;;;;39.27;36.93;;;;;;;2.86;100.00;99620.16;4992298;28;20458;-47
2023/01/19 08:45:51;;;;;;;40.50;37.40;;;;;;;2.88;100.00;99625.25;4992367;28;20434;-45
2023/01/19 08:48:22;;;;;;;40.67;37.80;;;;;;;2.88;100.00;99622.59;4992515;28;20438;-44
2023/01/19 08:50:51;;;;;;;38.37;35.77;;;;;;;2.92;100.00;99632.63;4992707;28;20430;-43
2023/01/19 08:53:19;;;;;;;40.20;37.20;;;;;;;2.90;100.00;99631.97;4992083;28;21060;-43
2023/01/19 08:55:47;;;;;;;40.50;37.50;;;;;;;2.94;100.00;99640.34;4992238;28;20425;-45
2023/01/19 08:58:16;;;;;;;37.53;34.93;;;;;;;2.97;100.00;99635.56;4992213;28;20438;-44
2023/01/19 09:00:43;;;;;;;37.70;35.10;;;;;;;2.96;100.00;99630.44;4992465;28;20437;-45
2023/01/19 09:03:13;;;;;;;36.73;34.40;;;;;;;2.96;100.00;99633.91;4991894;28;20457;-44
2023/01/19 09:05:41;;;;;;;37.43;34.93;;;;;;;2.97;100.00;99634.72;4992273;28;20441;-46
2023/01/19 09:08:10;;;;;;;36.87;34.33;;;;;;;2.98;100.00;99631.13;4992621;28;20508;-45
2023/01/19 09:10:39;;;;;;;37.13;34.93;;;;;;;3.03;100.00;99641.94;4992242;28;20438;-47
2023/01/19 09:13:09;;;;;;;37.60;35.03;;;;;;;3.04;100.00;99648.84;4991945;28;20484;-48
2023/01/19 09:15:37;;;;;;;37.07;34.80;;;;;;;3.07;100.00;99659.03;4992105;28;20441;-45
2023/01/19 09:18:09;;;;;;;36.40;34.10;;;;;;;3.10;100.00;99656.06;4992274;28;20840;-48
2023/01/19 09:20:38;;;;;;;39.10;35.97;;;;;;;3.10;100.00;99659.50;4992723;28;20421;-47
2023/01/19 09:23:05;;;;;;;36.63;34.30;;;;;;;3.12;100.00;99670.69;4991673;28;20591;-44
2023/01/19 09:25:33;;;;;;;37.70;35.10;;;;;;;3.18;100.00;99672.63;4992132;28;20438;-45
2023/01/19 09:28:01;;;;;;;39.30;36.03;;;;;;;3.31;100.00;99685.22;4992174;28;20458;-45
2023/01/19 09:30:31;;;;;;;36.27;34.10;;;;;;;3.49;100.00;99693.66;4992292;28;20840;-47
2023/01/19 09:33:03;;;;;;;36.10;34.10;;;;;;;3.68;100.00;99701.06;4991636;28;20468;-44
2023/01/19 09:35:31;;;;;;;35.73;33.43;;;;;;;3.86;100.00;99712.09;4992016;28;20433;-47
2023/01/19 09:38:00;;;;;;;37.20;34.50;;;;;;;3.98;100.00;99703.75;4986110;28;20988;-44
2023/01/19 09:40:29;;;;;;;36.13;33.77;;;;;;;4.16;100.00;99714.78;4983201;28;20458;-46
2023/01/19 09:43:03;;;;;;;35.57;33.37;;;;;;;4.35;100.00;99715.09;4991521;28;20469;-44
2023/01/19 09:45:35;;;;;;;35.60;33.17;;;;;;;4.46;100.00;99713.81;4991863;28;20429;-47
2023/01/19 09:48:13;;;;;;;36.93;34.47;;;;;;;4.47;100.00;99718.09;4991960;28;20879;-45
2023/01/19 09:50:45;;;;;;;35.47;33.43;;;;;;;4.42;100.00;99731.84;4992152;28;20819;-44
2023/01/19 09:53:32;;;;;;;35.07;32.93;;;;;;;4.40;100.00;99720.66;4991664;28;20474;-44
2023/01/19 09:56:00;;;;;;;35.93;33.10;;;;;;;4.42;100.00;99733.69;4991558;28;20936;-44
2023/01/19 09:58:28;;;;;;;36.53;34.23;;;;;;;4.53;100.00;99740.31;4991800;28;20437;-45
2023/01/19 10:01:05;;;;;;;36.13;33.70;;;;;;;4.58;100.00;99743.22;4992154;28;20426;-46
2023/01/19 10:03:37;;;;;;;37.03;34.53;;;;;;;4.58;100.00;99746.69;4991636;28;20531;-47
2023/01/19 10:06:11;;;;;;;36.20;33.87;;;;;;;4.54;100.00;99755.97;4991650;28;20454;-45
2023/01/19 10:08:46;;;;;;;35.17;33.10;;;;;;;4.40;100.00;99757.59;4991910;28;20535;-44
2023/01/19 10:11:32;;;;;;;36.13;34.00;;;;;;;4.45;100.00;99757.88;4992142;28;20787;-45
2023/01/19 10:14:19;;;;;;;36.27;33.57;;;;;;;4.40;100.00;99762.88;4991158;28;20470;-45
2023/01/19 10:16:56;;;;;;;35.10;32.83;;;;;;;4.36;100.00;99752.88;4992749;28;20461;-49
2023/01/19 10:19:29;;;;;;;37.20;34.60;;;;;;;4.40;100.00;99754.97;4995204;28;20429;-46
2023/01/19 10:22:00;;;;;;;35.20;32.90;;;;;;;4.47;100.00;99762.97;4995161;28;20434;-44
2023/01/19 10:24:37;;;;;;;35.40;33.23;;;;;;;4.66;100.00;99765.06;4994846;28;20843;-46
2023/01/19 10:27:22;;;;;;;35.50;33.33;;;;;;;4.73;100.00;99765.16;4995457;28;20453;-46
2023/01/19 10:29:50;;;;;;;35.50;33.40;;;;;;;4.79;100.00;99767.91;4995007;28;20434;-46
2023/01/19 10:32:25;;;;;;;35.20;33.20;;;;;;;4.71;100.00;99764.53;4994899;28;20955;-47
2023/01/19 10:34:54;;;;;;;36.83;34.70;;;;;;;4.70;100.00;99781.38;4994738;28;20442;-45
2023/01/19 10:37:29;;;;;;;35.47;33.37;;;;;;;4.59;100.00;99773.91;4993965;28;20453;-44
2023/01/19 10:40:07;;;;;;;35.63;33.63;;;;;;;4.58;100.00;99786.28;4983267;28;20431;-46
2023/01/19 10:42:36;;;;;;;33.80;31.50;;;;;;;4.61;100.00;99785.09;4994499;28;20521;-46
2023/01/19 10:45:15;;;;;;;33.60;31.80;;;;;;;4.63;100.00;99786.56;4994630;28;20430;-44
2023/01/19 10:47:44;;;;;;;35.53;33.67;;;;;;;4.73;100.00;99784.47;4994796;28;20453;-44
2023/01/19 10:50:33;;;;;;;35.27;31.80;;;;;;;4.80;100.00;99790.69;4994916;28;20796;-45
2023/01/19 10:53:04;;;;;;;33.93;31.87;;;;;;;4.88;100.00;99777.38;4990130;28;20852;-45
2023/01/19 10:55:36;;;;;;;34.67;32.40;;;;;;;4.87;100.00;99790.75;4994404;28;20948;-45
2023/01/19 10:58:06;;;;;;;32.13;30.50;;;;;;;4.81;100.00;99799.41;4994407;28;20536;-45
2023/01/19 11:00:36;;;;;;;32.50;30.80;;;;;;;4.76;100.00;99791.22;4994531;28;20433;-45
2023/01/19 11:03:05;;;;;;;32.10;30.33;;;;;;;4.66;100.00;99794.13;4994005;28;20465;-51
2023/01/19 11:05:34;;;;;;;31.27;29.87;;;;;;;4.65;100.00;99803.06;4994383;28;20494;-44
2023/01/19 11:08:22;;;;;;;32.60;30.83;;;;;;;4.64;100.00;99805.88;4994492;28;20462;-44
2023/01/19 11:10:57;;;;;;;31.80;29.80;;;;;;;4.71;100.00;99801.50;4994394;28;21164;-44
2023/01/19 11:13:25;;;;;;;31.40;29.90;;;;;;;4.71;100.00;99806.78;4993768;28;20801;-46
2023/01/19 11:15:56;;;;;;;32.27;30.53;;;;;;;4.77;100.00;99801.59;4994163;28;20445;-47
2023/01/19 11:18:28;;;;;;;31.77;30.00;;;;;;;4.76;100.00;99805.25;4994507;28;20441;-44
2023/01/19 11:20:57;;;;;;;32.00;30.33;;;;;;;4.81;100.00;99802.03;4994259;28;20434;-46
2023/01/19 11:23:28;;;;;;;30.53;29.13;;;;;;;4.74;100.00;99811.72;4993968;28;20469;-46
2023/01/19 11:26:00;;;;;;;31.37;29.77;;;;;;;4.71;100.00;99822.63;4993791;28;20891;-46
2023/01/19 11:28:31;;;;;;;32.40;30.90;;;;;;;4.72;100.00;99803.16;4993340;28;20541;-46
2023/01/19 11:31:01;;;;;;;30.47;29.07;;;;;;;4.81;100.00;99824.00;4994131;28;20433;-45
2023/01/19 11:33:34;;;;;;;29.43;27.93;;;;;;;4.86;100.00;99826.94;4993350;28;20616;-47
2023/01/19 11:36:04;;;;;;;30.40;29.10;;;;;;;4.84;100.00;99825.44;4993637;28;20445;-49
2023/01/19 11:38:32;;;;;;;30.90;29.53;;;;;;;4.77;100.00;99829.84;4986199;28;20430;-46